createdAt,value
2019-05-16T00:02:28.481Z,4.97
2019-05-16T00:04:59.114Z,4.78
2019-05-16T00:07:28.359Z,5.97
2019-05-16T00:09:59.005Z,6.05
2019-05-16T00:12:29.195Z,4.78
2019-05-16T00:14:58.189Z,4.60
2019-05-16T00:17:28.479Z,4.78
2019-05-16T00:19:58.947Z,5.72
2019-05-16T00:22:28.764Z,5.58
2019-05-16T00:24:58.013Z,3.80
2019-05-16T00:27:28.107Z,3.27
2019-05-16T00:29:58.129Z,3.87
2019-05-16T00:32:28.141Z,5.95
2019-05-16T00:34:58.348Z,3.37
2019-05-16T00:37:28.726Z,4.10
2019-05-16T00:39:58.851Z,3.70
2019-05-16T00:42:28.624Z,3.83
2019-05-16T00:44:58.399Z,3.80
2019-05-16T00:47:28.379Z,3.83
2019-05-16T00:49:58.262Z,3.58
2019-05-16T00:52:28.709Z,3.72
2019-05-16T00:54:58.137Z,4.37
2019-05-16T00:57:28.186Z,6.05
2019-05-16T00:59:59.191Z,4.15
2019-05-16T01:02:28.802Z,4.80
2019-05-16T01:04:58.980Z,3.83
2019-05-16T01:07:27.850Z,10.50
2019-05-16T01:09:58.337Z,19.73
2019-05-16T01:12:28.357Z,11.97
2019-05-16T01:14:58.440Z,9.08
2019-05-16T01:17:28.310Z,11.97
2019-05-16T01:19:57.869Z,13.22
2019-05-16T01:22:28.832Z,9.55
2019-05-16T01:24:58.512Z,6.28
2019-05-16T01:27:27.846Z,5.80
2019-05-16T01:29:58.292Z,6.65
2019-05-16T01:32:29.131Z,3.22
2019-05-16T01:34:58.756Z,4.87
2019-05-16T01:37:27.873Z,4.35
2019-05-16T01:39:58.591Z,3.95
2019-05-16T01:42:27.864Z,3.42
2019-05-16T01:44:57.818Z,3.45
2019-05-16T01:47:28.671Z,3.40
2019-05-16T01:49:58.032Z,4.30
2019-05-16T01:52:28.911Z,3.72
2019-05-16T01:54:58.699Z,3.80
2019-05-16T01:57:28.251Z,5.78
2019-05-16T01:59:58.871Z,4.83
2019-05-16T02:02:28.932Z,4.42
2019-05-16T02:04:59.096Z,4.62
2019-05-16T02:07:28.307Z,7.15
2019-05-16T02:09:58.261Z,3.40
2019-05-16T02:12:27.767Z,3.85
2019-05-16T02:14:58.595Z,4.25
2019-05-16T02:17:28.874Z,4.95
2019-05-16T02:19:57.775Z,4.15
2019-05-16T02:22:28.403Z,3.12
2019-05-16T02:24:58.475Z,4.70
2019-05-16T02:27:28.636Z,3.40
2019-05-16T02:29:56.794Z,4.05
2019-05-16T02:32:25.235Z,4.00
2019-05-16T02:34:53.698Z,3.92
2019-05-16T02:37:29.180Z,4.17
2019-05-16T02:39:54.614Z,4.42
2019-05-16T02:42:23.404Z,4.05
2019-05-16T02:44:51.831Z,13.50
2019-05-16T02:47:21.203Z,12.20
2019-05-16T02:49:50.532Z,18.35
2019-05-16T02:52:21.746Z,17.02
2019-05-16T02:54:51.789Z,7.35
2019-05-16T02:57:21.451Z,6.22
2019-05-16T02:59:51.009Z,7.50
2019-05-16T03:02:20.525Z,6.78
2019-05-16T03:04:51.738Z,7.78
2019-05-16T03:07:36.532Z,8.55
2019-05-16T03:09:51.550Z,7.55
2019-05-16T03:12:22.330Z,8.08
2019-05-16T03:14:54.483Z,5.87
2019-05-16T03:17:25.256Z,4.90
2019-05-16T03:19:56.648Z,4.55
2019-05-16T03:22:31.370Z,10.65
2019-05-16T03:25:01.147Z,4.85
2019-05-16T03:27:30.586Z,6.85
2019-05-16T03:30:01.626Z,5.17
2019-05-16T03:32:33.957Z,5.65
2019-05-16T03:35:05.003Z,4.67
2019-05-16T03:37:30.793Z,5.60
2019-05-16T03:40:00.579Z,5.83
2019-05-16T03:42:31.043Z,5.60
2019-05-16T03:45:02.190Z,4.70
2019-05-16T03:47:31.351Z,5.30
2019-05-16T03:50:00.777Z,6.75
2019-05-16T03:52:31.008Z,5.25
2019-05-16T03:55:01.722Z,5.12
2019-05-16T03:57:30.738Z,5.00
2019-05-16T04:00:00.548Z,6.75
2019-05-16T04:02:30.948Z,5.47
2019-05-16T04:05:01.775Z,8.10
2019-05-16T04:07:31.725Z,6.05
2019-05-16T04:10:02.178Z,8.28
2019-05-16T04:12:30.893Z,7.53
2019-05-16T04:15:01.867Z,7.72
2019-05-16T04:17:31.683Z,9.00
2019-05-16T04:20:02.214Z,6.90
2019-05-16T04:22:31.772Z,8.23
2019-05-16T04:25:01.940Z,6.55
2019-05-16T04:27:31.087Z,7.92
2019-05-16T04:30:01.618Z,8.45
2019-05-16T04:32:31.552Z,10.38
2019-05-16T04:35:02.627Z,8.90
2019-05-16T04:37:31.404Z,6.50
2019-05-16T04:40:01.203Z,5.65
2019-05-16T04:42:31.084Z,4.97
2019-05-16T04:45:01.096Z,4.62
2019-05-16T04:47:31.650Z,4.33
2019-05-16T04:50:01.580Z,4.15
2019-05-16T04:52:30.717Z,8.53
2019-05-16T04:55:00.759Z,4.90
2019-05-16T04:57:31.316Z,7.78
2019-05-16T05:00:02.234Z,5.47
2019-05-16T05:02:30.964Z,4.08
2019-05-16T05:05:01.319Z,7.90
2019-05-16T05:07:31.318Z,4.50
2019-05-16T05:10:00.783Z,5.70
2019-05-16T05:12:31.462Z,6.00
2019-05-16T05:15:01.382Z,6.17
2019-05-16T05:17:30.672Z,7.30
2019-05-16T05:20:01.168Z,8.23
2019-05-16T05:22:30.418Z,6.15
2019-05-16T05:25:00.126Z,8.48
2019-05-16T05:27:30.295Z,9.20
2019-05-16T05:30:00.994Z,12.50
2019-05-16T05:32:30.560Z,6.08
2019-05-16T05:34:59.848Z,7.50
2019-05-16T05:37:29.839Z,5.80
2019-05-16T05:39:59.950Z,6.12
2019-05-16T05:42:30.554Z,5.92
2019-05-16T05:45:00.268Z,8.35
2019-05-16T05:47:30.805Z,5.78
2019-05-16T05:50:00.691Z,5.53
2019-05-16T05:52:30.336Z,7.17
2019-05-16T05:55:00.637Z,6.67
2019-05-16T05:57:30.025Z,8.10
2019-05-16T06:00:00.511Z,7.60
2019-05-16T06:02:30.985Z,9.13
2019-05-16T06:04:59.755Z,10.23
2019-05-16T06:07:30.029Z,11.35
2019-05-16T06:10:00.382Z,8.50
2019-05-16T06:12:30.352Z,9.65
2019-05-16T06:15:08.403Z,9.18
2019-05-16T06:17:30.690Z,8.60
2019-05-16T06:20:00.297Z,12.60
2019-05-16T06:22:29.841Z,7.97
2019-05-16T06:25:00.932Z,9.40
2019-05-16T06:27:30.289Z,9.30
2019-05-16T06:30:00.518Z,10.40
2019-05-16T06:32:30.434Z,9.43
2019-05-16T06:35:00.053Z,8.95
2019-05-16T06:37:30.876Z,10.50
2019-05-16T06:40:00.654Z,8.75
2019-05-16T06:42:29.947Z,8.63
2019-05-16T06:45:00.844Z,9.10
2019-05-16T06:47:30.541Z,8.33
2019-05-16T06:50:00.322Z,9.40
2019-05-16T06:52:30.106Z,9.70
2019-05-16T06:55:00.822Z,9.90
2019-05-16T06:57:30.277Z,9.60
2019-05-16T07:00:00.662Z,10.10
2019-05-16T07:02:33.693Z,10.08
2019-05-16T07:05:01.142Z,10.90
2019-05-16T07:07:30.804Z,10.82
2019-05-16T07:10:04.201Z,10.45
2019-05-16T07:12:33.724Z,10.28
2019-05-16T07:15:01.234Z,9.88
2019-05-16T07:17:31.820Z,9.15
2019-05-16T07:20:00.896Z,9.48
2019-05-16T07:22:31.215Z,12.35
2019-05-16T07:25:00.064Z,9.35
2019-05-16T07:27:30.701Z,8.90
2019-05-16T07:30:01.164Z,9.35
2019-05-16T07:32:30.275Z,9.30
2019-05-16T07:35:00.384Z,10.43
2019-05-16T07:37:31.428Z,10.72
2019-05-16T07:40:08.441Z,11.68
2019-05-16T07:42:30.802Z,10.45
2019-05-16T07:45:00.829Z,10.65
2019-05-16T07:47:30.994Z,11.25
2019-05-16T07:49:59.612Z,9.85
2019-05-16T07:52:35.336Z,10.10
2019-05-16T07:55:00.260Z,10.05
2019-05-16T07:57:30.622Z,9.75
2019-05-16T08:00:00.163Z,9.48
2019-05-16T08:02:31.117Z,9.63
2019-05-16T08:05:00.692Z,8.03
2019-05-16T08:07:33.209Z,9.93
2019-05-16T08:09:59.868Z,9.03
2019-05-16T08:12:32.765Z,8.60
2019-05-16T08:15:00.733Z,8.35
2019-05-16T08:17:31.314Z,8.70
2019-05-16T08:20:00.029Z,8.00
2019-05-16T08:22:30.722Z,7.20
2019-05-16T08:25:00.236Z,8.90
2019-05-16T08:27:31.318Z,7.60
2019-05-16T08:30:02.230Z,6.80
2019-05-16T08:32:31.237Z,6.75
2019-05-16T08:35:01.134Z,6.87
2019-05-16T08:37:38.491Z,5.70
2019-05-16T08:40:00.480Z,6.20
2019-05-16T08:42:32.234Z,5.83
2019-05-16T08:45:01.857Z,4.37
2019-05-16T08:47:32.033Z,5.10
2019-05-16T08:50:00.581Z,4.28
2019-05-16T08:52:31.542Z,4.65
2019-05-16T08:55:03.162Z,3.65
2019-05-16T08:57:32.654Z,4.72
2019-05-16T09:05:05.169Z,4.37
2019-05-16T09:07:31.998Z,4.58
2019-05-16T09:10:00.648Z,4.95
2019-05-16T09:10:15.892Z,4.53
2019-05-16T09:10:34.908Z,4.42
2019-05-16T09:12:29.109Z,5.12
2019-05-16T09:14:59.438Z,4.50
2019-05-16T09:17:27.900Z,5.20
2019-05-16T09:19:57.659Z,4.28
2019-05-16T09:22:28.199Z,5.47
2019-05-16T09:24:57.652Z,5.50
2019-05-16T09:27:27.265Z,4.80
2019-05-16T09:29:56.740Z,4.50
2019-05-16T09:32:27.862Z,3.95
2019-05-16T09:34:57.376Z,7.20
2019-05-16T09:37:26.801Z,3.70
2019-05-16T09:39:57.325Z,4.55
2019-05-16T09:42:27.682Z,5.37
2019-05-16T09:44:57.724Z,6.03
2019-05-16T09:47:28.245Z,7.28
2019-05-16T09:49:57.947Z,5.87
2019-05-16T09:52:27.401Z,6.40
2019-05-16T09:54:57.714Z,5.45
2019-05-16T09:57:27.757Z,6.55
2019-05-16T09:59:57.227Z,5.78
2019-05-16T10:02:27.447Z,6.10
2019-05-16T10:04:58.017Z,6.58
2019-05-16T10:07:28.300Z,6.67
2019-05-16T10:09:57.036Z,6.05
2019-05-16T10:12:26.292Z,7.00
2019-05-16T10:14:54.840Z,6.60
2019-05-16T10:17:23.372Z,6.85
2019-05-16T10:19:51.831Z,6.40
2019-05-16T10:22:20.311Z,6.33
2019-05-16T10:24:48.854Z,6.85
2019-05-16T10:27:17.393Z,6.75
2019-05-16T10:29:48.508Z,6.75
2019-05-16T10:32:16.755Z,7.55
2019-05-16T10:34:46.791Z,8.45
2019-05-16T10:37:17.638Z,6.12
2019-05-16T10:39:46.930Z,6.97
2019-05-16T10:42:28.159Z,7.25
2019-05-16T10:44:48.510Z,6.53
2019-05-16T10:47:17.298Z,8.13
2019-05-16T10:49:47.569Z,7.15
2019-05-16T10:52:16.678Z,6.87
2019-05-16T10:54:57.266Z,7.37
2019-05-16T10:57:15.591Z,7.50
2019-05-16T11:00:01.963Z,7.03
2019-05-16T11:02:16.540Z,7.37
2019-05-16T11:04:57.196Z,7.08
2019-05-16T11:07:14.736Z,7.15
2019-05-16T11:09:54.792Z,7.53
2019-05-16T11:12:13.488Z,7.08
2019-05-16T11:14:42.195Z,8.05
2019-05-16T11:17:13.208Z,7.72
2019-05-16T11:19:40.778Z,8.50
2019-05-16T11:22:09.302Z,8.30
2019-05-16T11:24:37.959Z,7.28
2019-05-16T11:27:07.532Z,8.20
2019-05-16T11:29:36.639Z,8.30
2019-05-16T11:32:06.933Z,7.78
2019-05-16T11:34:37.438Z,7.87
2019-05-16T11:37:06.885Z,7.60
2019-05-16T11:39:37.070Z,7.42
2019-05-16T11:42:08.044Z,8.23
2019-05-16T11:44:38.084Z,7.83
2019-05-16T11:47:08.180Z,7.53
2019-05-16T11:49:36.937Z,7.60
2019-05-16T11:52:07.423Z,6.92
2019-05-16T11:54:37.368Z,9.78
2019-05-16T11:57:06.922Z,8.18
2019-05-16T11:59:37.369Z,7.90
2019-05-16T12:02:05.813Z,8.45
2019-05-16T12:04:34.243Z,8.73
2019-05-16T12:07:02.699Z,8.00
2019-05-16T12:09:34.464Z,8.83
2019-05-16T12:12:04.371Z,7.00
2019-05-16T12:14:32.101Z,7.85
2019-05-16T12:17:00.596Z,7.42
2019-05-16T12:19:34.602Z,7.17
2019-05-16T12:22:00.361Z,7.20
2019-05-16T12:24:36.364Z,7.03
2019-05-16T12:27:00.762Z,6.83
2019-05-16T12:29:29.495Z,6.95
2019-05-16T12:32:02.567Z,7.70
2019-05-16T12:34:28.164Z,6.92
2019-05-16T12:36:56.697Z,7.17
2019-05-16T12:39:26.805Z,7.45
2019-05-16T12:41:59.040Z,7.83
2019-05-16T12:44:26.889Z,7.17
2019-05-16T12:46:56.998Z,7.42
2019-05-16T12:49:25.746Z,7.58
2019-05-16T12:51:54.294Z,7.47
2019-05-16T12:54:22.740Z,6.45
2019-05-16T12:56:51.316Z,6.12
2019-05-16T12:59:21.668Z,7.25
2019-05-16T13:01:49.936Z,7.87
2019-05-16T13:04:19.261Z,7.33
2019-05-16T13:06:47.830Z,8.00
2019-05-16T13:09:18.448Z,8.33
2019-05-16T13:11:47.271Z,7.75
2019-05-16T13:14:16.908Z,7.50
2019-05-16T13:16:47.379Z,7.35
2019-05-16T13:19:18.249Z,7.15
2019-05-16T13:21:46.967Z,7.28
2019-05-16T13:24:18.681Z,6.92
2019-05-16T13:26:47.705Z,7.80
2019-05-16T13:29:18.033Z,8.88
2019-05-16T13:31:47.808Z,7.80
2019-05-16T13:34:17.870Z,8.13
2019-05-16T13:36:47.447Z,9.25
2019-05-16T13:39:17.058Z,7.90
2019-05-16T13:41:45.834Z,8.45
2019-05-16T13:44:19.938Z,7.37
2019-05-16T13:46:46.612Z,8.15
2019-05-16T13:49:14.963Z,8.38
2019-05-16T13:51:45.012Z,8.20
2019-05-16T13:54:13.475Z,7.97
2019-05-16T13:56:41.964Z,8.70
2019-05-16T13:59:10.431Z,9.10
2019-05-16T14:01:39.042Z,8.35
2019-05-16T14:04:09.769Z,8.88
2019-05-16T14:06:37.796Z,9.70
2019-05-16T14:09:08.162Z,8.98
2019-05-16T14:11:37.276Z,8.78
2019-05-16T14:14:06.141Z,11.03
2019-05-16T14:16:34.614Z,10.30
2019-05-16T14:19:03.040Z,10.60
2019-05-16T14:21:31.581Z,10.98
2019-05-16T14:24:00.147Z,10.13
2019-05-16T14:26:28.618Z,9.40
2019-05-16T14:28:57.865Z,9.35
2019-05-16T14:31:26.466Z,9.48
2019-05-16T14:33:56.773Z,9.90
2019-05-16T14:36:27.841Z,11.03
2019-05-16T14:38:57.518Z,9.88
2019-05-16T14:41:27.864Z,10.00
2019-05-16T14:43:56.082Z,9.13
2019-05-16T14:46:27.189Z,11.63
2019-05-16T14:48:54.730Z,11.53
2019-05-16T14:51:23.167Z,10.68
2019-05-16T14:53:51.654Z,11.12
2019-05-16T14:56:20.245Z,10.25
2019-05-16T14:58:48.925Z,10.32
2019-05-16T15:01:17.708Z,10.15
2019-05-16T15:03:47.276Z,9.90
2019-05-16T15:06:18.317Z,9.65
2019-05-16T15:08:47.477Z,9.13
2019-05-16T15:11:17.953Z,10.50
2019-05-16T15:13:46.527Z,11.33
2019-05-16T15:16:16.900Z,12.30
2019-05-16T15:18:47.406Z,10.75
2019-05-16T15:21:17.606Z,10.20
2019-05-16T15:23:45.787Z,10.68
2019-05-16T15:26:14.315Z,10.85
2019-05-16T15:28:42.772Z,10.20
2019-05-16T15:31:11.377Z,11.80
2019-05-16T15:33:39.910Z,11.10
2019-05-16T15:36:08.874Z,13.72
2019-05-16T15:38:37.486Z,13.40
2019-05-16T15:41:08.315Z,11.63
2019-05-16T15:43:36.889Z,11.18
2019-05-16T15:46:08.088Z,11.57
2019-05-16T15:48:37.191Z,12.50
2019-05-16T15:51:08.761Z,12.33
2019-05-16T15:53:36.589Z,11.50
2019-05-16T15:56:09.603Z,11.40
2019-05-16T15:58:37.421Z,11.45
2019-05-16T16:01:07.060Z,11.73
2019-05-16T16:03:38.216Z,12.40
2019-05-16T16:06:06.804Z,11.18
2019-05-16T16:08:37.447Z,12.30
2019-05-16T16:11:07.286Z,12.43
2019-05-16T16:13:37.357Z,11.40
2019-05-16T16:16:09.996Z,12.35
2019-05-16T16:18:37.710Z,11.78
2019-05-16T16:21:07.521Z,9.70
2019-05-16T16:23:37.300Z,11.10
2019-05-16T16:26:07.046Z,10.82
2019-05-16T16:28:38.109Z,15.53
2019-05-16T16:31:07.640Z,13.25
2019-05-16T16:33:37.430Z,12.37
2019-05-16T16:36:07.867Z,11.43
2019-05-16T16:38:37.187Z,11.83
2019-05-16T16:41:08.042Z,12.40
2019-05-16T16:43:37.434Z,12.80
2019-05-16T16:46:13.092Z,13.70
2019-05-16T16:48:36.341Z,18.57
2019-05-16T16:51:06.633Z,12.25
2019-05-16T16:53:37.507Z,13.50
2019-05-16T16:56:07.434Z,12.85
2019-05-16T16:58:37.251Z,18.25
2019-05-16T17:01:07.212Z,15.98
2019-05-16T17:03:36.485Z,15.10
2019-05-16T17:06:05.218Z,14.70
2019-05-16T17:08:33.761Z,13.30
2019-05-16T17:11:02.330Z,12.55
2019-05-16T17:13:30.747Z,12.23
2019-05-16T17:15:59.243Z,11.57
2019-05-16T17:18:29.277Z,11.80
2019-05-16T17:20:57.823Z,10.43
2019-05-16T17:23:26.598Z,12.03
2019-05-16T17:25:56.610Z,11.00
2019-05-16T17:28:25.513Z,13.22
2019-05-16T17:30:56.522Z,12.33
2019-05-16T17:33:24.454Z,13.18
2019-05-16T17:35:54.625Z,12.40
2019-05-16T17:38:23.158Z,11.83
2019-05-16T17:40:51.692Z,9.73
2019-05-16T17:43:20.728Z,12.10
2019-05-16T17:45:49.175Z,13.83
2019-05-16T17:48:17.866Z,10.10
2019-05-16T17:50:47.045Z,11.30
2019-05-16T17:53:17.338Z,11.28
2019-05-16T17:55:47.341Z,11.05
2019-05-16T17:58:16.511Z,11.33
2019-05-16T18:00:47.182Z,11.28
2019-05-16T18:03:17.353Z,10.32
2019-05-16T18:05:47.429Z,11.73
2019-05-16T18:08:16.408Z,10.18
2019-05-16T18:10:46.960Z,11.35
2019-05-16T18:13:15.124Z,13.95
2019-05-16T18:15:43.697Z,10.10
2019-05-16T18:18:12.220Z,9.58
2019-05-16T18:20:54.533Z,9.08
2019-05-16T18:23:11.055Z,9.63
2019-05-16T18:25:39.616Z,10.05
2019-05-16T18:28:08.300Z,10.45
2019-05-16T18:30:37.037Z,10.75
2019-05-16T18:33:07.270Z,8.48
2019-05-16T18:35:36.961Z,8.85
2019-05-16T18:38:07.297Z,9.30
2019-05-16T18:40:36.821Z,7.70
2019-05-16T18:43:08.294Z,8.18
2019-05-16T18:45:36.560Z,9.60
2019-05-16T18:48:07.354Z,11.95
2019-05-16T18:50:37.653Z,9.15
2019-05-16T18:53:07.240Z,10.75
2019-05-16T18:55:37.254Z,7.40
2019-05-16T18:58:08.602Z,9.38
2019-05-16T19:00:37.675Z,10.30
2019-05-16T19:03:07.653Z,10.60
2019-05-16T19:05:37.258Z,8.93
2019-05-16T19:08:07.448Z,8.33
2019-05-16T19:10:36.956Z,9.20
2019-05-16T19:13:08.028Z,9.68
2019-05-16T19:15:37.494Z,7.58
2019-05-16T19:18:06.670Z,7.40
2019-05-16T19:20:37.571Z,8.25
2019-05-16T19:23:07.428Z,8.05
2019-05-16T19:25:36.254Z,7.62
2019-05-16T19:28:06.796Z,10.32
2019-05-16T19:30:37.576Z,8.93
2019-05-16T19:33:06.898Z,9.00
2019-05-16T19:35:35.729Z,8.85
2019-05-16T19:38:06.607Z,9.00
2019-05-16T19:40:37.781Z,10.05
2019-05-16T19:43:06.999Z,9.10
2019-05-16T19:45:37.262Z,8.65
2019-05-16T19:48:07.157Z,9.15
2019-05-16T19:50:37.266Z,8.55
2019-05-16T19:53:07.747Z,8.38
2019-05-16T19:55:36.719Z,8.53
2019-05-16T19:58:06.921Z,8.18
2019-05-16T20:00:37.455Z,11.03
2019-05-16T20:03:07.781Z,10.13
2019-05-16T20:05:37.577Z,12.78
2019-05-16T20:08:06.816Z,13.00
2019-05-16T20:10:36.685Z,12.25
2019-05-16T20:13:07.677Z,11.78
2019-05-16T20:15:36.573Z,11.20
2019-05-16T20:18:07.612Z,12.33
2019-05-16T20:20:37.176Z,14.38
2019-05-16T20:23:06.326Z,14.55
2019-05-16T20:25:36.662Z,14.25
2019-05-16T20:28:08.425Z,18.82
2019-05-16T20:30:37.255Z,20.12
2019-05-16T20:33:09.189Z,23.47
2019-05-16T20:35:37.598Z,22.58
2019-05-16T20:38:06.829Z,21.37
2019-05-16T20:40:37.399Z,16.02
2019-05-16T20:43:07.615Z,19.32
2019-05-16T20:45:39.506Z,14.80
2019-05-16T20:48:12.007Z,13.88
2019-05-16T20:50:37.046Z,16.25
2019-05-16T20:53:07.290Z,17.40
2019-05-16T20:55:37.634Z,15.10
2019-05-16T20:58:07.763Z,15.20
2019-05-16T21:00:37.738Z,13.98
2019-05-16T21:03:07.228Z,13.85
2019-05-16T21:05:38.366Z,13.72
2019-05-16T21:08:06.588Z,13.65
2019-05-16T21:10:35.162Z,12.63
2019-05-16T21:13:03.602Z,13.45
2019-05-16T21:15:32.042Z,15.40
2019-05-16T21:18:00.513Z,14.33
2019-05-16T21:20:29.971Z,14.58
2019-05-16T21:22:58.668Z,16.07
2019-05-16T21:25:27.267Z,14.45
2019-05-16T21:27:57.298Z,15.03
2019-05-16T21:30:27.376Z,14.63
2019-05-16T21:32:56.500Z,14.73
2019-05-16T21:35:27.023Z,14.80
2019-05-16T21:37:55.341Z,14.85
2019-05-16T21:40:26.304Z,15.98
2019-05-16T21:42:58.524Z,15.85
2019-05-16T21:45:28.471Z,15.28
2019-05-16T21:47:56.731Z,15.28
2019-05-16T21:50:27.329Z,14.40
2019-05-16T21:52:56.566Z,15.03
2019-05-16T21:55:27.304Z,15.72
2019-05-16T21:57:57.430Z,16.30
2019-05-16T22:00:33.121Z,16.23
2019-05-16T22:03:01.606Z,14.83
2019-05-16T22:05:30.767Z,15.80
2019-05-16T22:07:59.230Z,17.55
2019-05-16T22:10:27.732Z,15.70
2019-05-16T22:12:57.238Z,16.20
2019-05-16T22:15:25.908Z,16.82
2019-05-16T22:17:56.483Z,17.10
2019-05-16T22:20:26.980Z,17.10
2019-05-16T22:22:57.265Z,17.05
2019-05-16T22:25:27.157Z,16.57
2019-05-16T22:27:57.590Z,16.23
2019-05-16T22:30:27.285Z,16.37
2019-05-16T22:32:55.937Z,16.02
2019-05-16T22:35:24.434Z,16.55
2019-05-16T22:37:56.436Z,17.48
2019-05-16T22:40:23.111Z,15.90
2019-05-16T22:42:51.641Z,17.23
2019-05-16T22:45:22.079Z,16.75
2019-05-16T22:47:50.674Z,17.65
2019-05-16T22:50:19.722Z,16.25
2019-05-16T22:52:48.267Z,17.52
2019-05-16T22:55:19.041Z,16.77
2019-05-16T22:57:47.566Z,16.85
2019-05-16T23:00:27.421Z,16.95
2019-05-16T23:02:56.650Z,15.50
2019-05-16T23:05:27.424Z,16.70
2019-05-16T23:08:05.154Z,16.50
2019-05-16T23:10:27.835Z,19.00
2019-05-16T23:12:57.200Z,17.15
2019-05-16T23:15:26.674Z,18.57
2019-05-16T23:17:57.154Z,18.25
2019-05-16T23:20:27.563Z,18.05
2019-05-16T23:22:56.285Z,20.77
2019-05-16T23:25:24.844Z,22.75
2019-05-16T23:27:53.280Z,21.82
2019-05-16T23:30:21.937Z,21.60
2019-05-16T23:32:50.455Z,20.45
2019-05-16T23:35:18.945Z,20.45
2019-05-16T23:37:47.394Z,22.30
2019-05-16T23:40:16.254Z,22.95
2019-05-16T23:42:46.538Z,22.20
2019-05-16T23:45:17.096Z,22.32
2019-05-16T23:47:47.165Z,22.40
2019-05-16T23:50:17.019Z,22.00
2019-05-16T23:52:47.130Z,23.25
2019-05-16T23:55:17.354Z,24.07
2019-05-16T23:57:47.003Z,22.90
